createdAt,value
2022-09-16T00:00:48.820Z,14.80
2022-09-16T00:03:17.123Z,14.75
2022-09-16T00:05:46.431Z,14.73
2022-09-16T00:08:14.591Z,14.70
2022-09-16T00:10:43.634Z,14.72
2022-09-16T00:13:12.294Z,14.72
2022-09-16T00:15:46.854Z,14.65
2022-09-16T00:18:32.237Z,14.63
2022-09-16T00:20:59.235Z,14.65
2022-09-16T00:23:26.175Z,14.72
2022-09-16T00:25:54.221Z,14.70
2022-09-16T00:28:22.605Z,14.69
2022-09-16T00:31:07.967Z,14.69
2022-09-16T00:33:34.974Z,14.71
2022-09-16T00:36:10.621Z,14.72
2022-09-16T00:38:55.987Z,14.69
2022-09-16T00:41:30.956Z,14.68
2022-09-16T00:44:01.852Z,14.67
2022-09-16T00:46:45.632Z,14.72
2022-09-16T00:49:20.560Z,14.70
2022-09-16T00:51:50.733Z,14.72
2022-09-16T00:54:18.767Z,14.73
2022-09-16T00:56:49.534Z,14.70
2022-09-16T00:59:24.525Z,14.64
2022-09-16T01:01:53.105Z,14.64
2022-09-16T01:05:06.754Z,14.67
2022-09-16T01:07:54.207Z,14.59
2022-09-16T01:10:42.290Z,14.63
2022-09-16T01:13:12.732Z,14.66
2022-09-16T01:15:48.572Z,14.60
2022-09-16T01:18:40.181Z,14.55
2022-09-16T01:21:33.800Z,14.50
2022-09-16T01:24:20.739Z,14.58
2022-09-16T01:26:59.774Z,14.57
2022-09-16T01:29:44.597Z,14.58
2022-09-16T01:32:40.133Z,14.62
2022-09-16T01:35:12.906Z,14.60
2022-09-16T01:38:04.297Z,14.58
2022-09-16T01:40:48.962Z,14.64
2022-09-16T01:43:36.804Z,14.62
2022-09-16T01:46:15.964Z,14.67
2022-09-16T01:48:54.721Z,14.69
2022-09-16T01:52:04.894Z,14.76
2022-09-16T01:54:46.851Z,14.73
2022-09-16T01:57:41.134Z,14.74
2022-09-16T02:00:11.536Z,14.71
2022-09-16T02:03:11.777Z,14.77
2022-09-16T02:05:51.201Z,14.75
2022-09-16T02:08:26.026Z,14.79
2022-09-16T02:11:16.578Z,14.72
2022-09-16T02:14:06.261Z,14.76
2022-09-16T02:16:39.013Z,14.80
2022-09-16T02:19:34.661Z,14.79
2022-09-16T02:22:07.639Z,14.80
2022-09-16T02:24:36.053Z,14.76
2022-09-16T02:27:06.658Z,14.73
2022-09-16T02:29:41.573Z,14.71
2022-09-16T02:32:15.530Z,14.68
2022-09-16T02:35:02.657Z,14.74
2022-09-16T02:37:52.716Z,14.74
2022-09-16T02:40:35.601Z,14.66
2022-09-16T02:43:20.994Z,14.71
2022-09-16T02:46:10.510Z,14.73
2022-09-16T02:48:55.906Z,14.74
2022-09-16T02:51:57.546Z,14.77
2022-09-16T02:54:55.369Z,14.75
2022-09-16T02:57:22.665Z,14.77
2022-09-16T02:59:50.374Z,14.77
2022-09-16T03:02:17.366Z,14.75
2022-09-16T03:04:44.748Z,14.76
2022-09-16T03:07:13.741Z,14.68
2022-09-16T03:09:43.711Z,14.73
2022-09-16T03:12:25.737Z,14.72
2022-09-16T03:15:39.229Z,14.68
2022-09-16T03:18:27.336Z,14.62
2022-09-16T03:21:25.412Z,14.47
2022-09-16T03:24:31.185Z,14.52
2022-09-16T03:27:07.959Z,14.53
2022-09-16T03:29:45.215Z,14.53
2022-09-16T03:32:35.858Z,14.51
2022-09-16T03:35:21.777Z,14.57
2022-09-16T03:38:08.589Z,14.58
2022-09-16T03:40:36.133Z,14.57
2022-09-16T03:43:15.077Z,14.61
2022-09-16T03:45:42.826Z,14.59
2022-09-16T03:48:28.254Z,14.57
2022-09-16T03:50:55.318Z,14.57
2022-09-16T03:53:22.221Z,14.54
2022-09-16T03:56:07.705Z,14.58
2022-09-16T03:58:34.963Z,14.52
2022-09-16T04:01:01.897Z,14.49
2022-09-16T04:03:47.559Z,14.41
2022-09-16T04:06:14.901Z,14.45
2022-09-16T04:08:44.218Z,14.46
2022-09-16T04:11:31.989Z,14.47
2022-09-16T04:13:59.277Z,14.47
2022-09-16T04:16:45.487Z,14.47
2022-09-16T04:19:13.710Z,14.46
2022-09-16T04:21:42.137Z,14.51
2022-09-16T04:24:27.572Z,14.49
2022-09-16T04:26:54.542Z,14.48
2022-09-16T04:29:21.483Z,14.45
2022-09-16T04:31:48.871Z,14.44
2022-09-16T04:34:34.354Z,14.35
2022-09-16T04:37:01.702Z,14.26
2022-09-16T04:39:28.681Z,14.28
2022-09-16T04:41:55.610Z,14.21
2022-09-16T04:44:22.543Z,14.23
2022-09-16T04:46:49.495Z,14.19
2022-09-16T04:49:16.446Z,14.13
2022-09-16T04:51:43.554Z,14.12
2022-09-16T04:54:28.889Z,14.05
2022-09-16T04:56:55.997Z,14.01
2022-09-16T04:59:22.932Z,14.00
2022-09-16T05:01:49.911Z,13.97
2022-09-16T05:04:16.957Z,13.87
2022-09-16T05:06:44.502Z,13.98
2022-09-16T05:09:12.282Z,13.97
2022-09-16T05:11:40.285Z,14.00
2022-09-16T05:14:10.537Z,14.02
2022-09-16T05:16:52.341Z,13.98
2022-09-16T05:19:19.328Z,13.99
2022-09-16T05:21:46.389Z,14.00
2022-09-16T05:24:34.917Z,13.98
2022-09-16T05:27:02.442Z,13.96
2022-09-16T05:29:29.328Z,14.09
2022-09-16T05:31:56.493Z,14.21
2022-09-16T05:34:28.368Z,14.37
2022-09-16T05:36:56.510Z,14.41
2022-09-16T05:39:41.752Z,14.45
2022-09-16T05:42:09.461Z,14.52
2022-09-16T05:44:54.677Z,14.60
2022-09-16T05:47:21.768Z,14.63
2022-09-16T05:49:48.679Z,14.64
2022-09-16T05:52:15.605Z,14.66
2022-09-16T05:55:01.136Z,14.79
2022-09-16T05:57:28.107Z,14.79
2022-09-16T05:59:55.026Z,14.73
2022-09-16T06:02:22.052Z,14.69
2022-09-16T06:04:49.289Z,14.70
2022-09-16T06:07:17.180Z,14.71
2022-09-16T06:09:44.245Z,14.75
2022-09-16T06:12:11.142Z,14.76
2022-09-16T06:14:47.110Z,14.69
2022-09-16T06:17:19.818Z,14.73
2022-09-16T06:19:46.849Z,14.75
2022-09-16T06:22:13.737Z,14.73
2022-09-16T06:24:40.653Z,14.86
2022-09-16T06:27:08.511Z,14.89
2022-09-16T06:29:47.589Z,14.94
2022-09-16T06:32:14.730Z,15.00
2022-09-16T06:34:41.720Z,15.00
2022-09-16T06:37:12.530Z,14.94
2022-09-16T06:39:39.505Z,14.89
2022-09-16T06:42:15.094Z,14.92
2022-09-16T06:44:42.032Z,15.01
2022-09-16T06:47:08.972Z,14.97
2022-09-16T06:49:35.919Z,15.10
2022-09-16T06:52:02.963Z,15.15
2022-09-16T06:54:29.942Z,15.22
2022-09-16T06:56:57.498Z,15.25
2022-09-16T06:59:24.421Z,15.24
2022-09-16T07:01:52.153Z,15.18
2022-09-16T07:04:19.113Z,15.22
2022-09-16T07:09:33.631Z,15.29
2022-09-16T07:12:01.317Z,15.30
2022-09-16T07:14:28.827Z,15.28
2022-09-16T07:16:58.960Z,15.28
2022-09-16T07:19:26.105Z,15.30
2022-09-16T07:21:53.231Z,15.27
2022-09-16T07:24:20.263Z,15.33
2022-09-16T07:26:47.248Z,15.35
2022-09-16T07:29:17.624Z,15.45
2022-09-16T07:31:44.503Z,15.53
2022-09-16T07:34:12.684Z,15.51
2022-09-16T07:36:43.996Z,15.65
2022-09-16T07:39:13.554Z,15.59
2022-09-16T07:41:45.381Z,15.62
2022-09-16T07:44:13.944Z,15.61
2022-09-16T07:46:41.173Z,15.54
2022-09-16T07:49:10.840Z,15.39
2022-09-16T07:51:37.804Z,15.36
2022-09-16T07:54:08.683Z,15.39
2022-09-16T07:56:38.693Z,15.36
2022-09-16T07:59:12.980Z,15.41
2022-09-16T08:01:43.651Z,15.54
2022-09-16T08:04:10.805Z,15.72
2022-09-16T08:06:39.593Z,15.78
2022-09-16T08:09:15.507Z,15.87
2022-09-16T08:11:53.352Z,16.00
2022-09-16T08:14:20.274Z,16.07
2022-09-16T08:16:51.098Z,16.20
2022-09-16T08:19:19.241Z,16.24
2022-09-16T08:21:46.358Z,16.24
2022-09-16T08:24:13.293Z,16.22
2022-09-16T08:26:40.367Z,16.27
2022-09-16T08:29:09.691Z,16.29
2022-09-16T08:31:38.377Z,16.38
2022-09-16T08:34:05.611Z,16.47
2022-09-16T08:36:35.695Z,16.50
2022-09-16T08:39:02.831Z,16.62
2022-09-16T08:42:01.962Z,16.62
2022-09-16T08:44:57.589Z,16.59
2022-09-16T08:47:54.337Z,16.55
2022-09-16T08:50:43.207Z,16.57
2022-09-16T08:53:20.209Z,16.66
2022-09-16T08:55:50.131Z,16.73
2022-09-16T08:58:24.549Z,16.68
2022-09-16T09:01:02.470Z,16.76
2022-09-16T09:03:41.398Z,16.82
2022-09-16T09:06:45.807Z,16.92
2022-09-16T09:09:42.461Z,16.84
2022-09-16T09:12:18.797Z,16.67
2022-09-16T09:14:55.926Z,16.45
2022-09-16T09:17:51.263Z,16.30
2022-09-16T09:20:55.732Z,16.29
2022-09-16T09:23:53.861Z,16.30
2022-09-16T09:26:48.910Z,16.39
2022-09-16T09:29:36.718Z,16.47
2022-09-16T09:32:19.642Z,16.63
2022-09-16T09:35:47.270Z,16.82
2022-09-16T09:38:32.794Z,17.18
2022-09-16T09:41:33.983Z,17.57
2022-09-16T09:44:45.994Z,17.65
2022-09-16T09:47:57.959Z,17.80
2022-09-16T09:50:41.556Z,17.67
2022-09-16T09:53:11.173Z,17.68
2022-09-16T09:56:13.050Z,17.48
2022-09-16T09:58:48.482Z,17.35
2022-09-16T10:01:16.236Z,17.17
2022-09-16T10:03:45.191Z,17.08
2022-09-16T10:06:12.677Z,17.10
2022-09-16T10:08:49.681Z,17.16
2022-09-16T10:11:22.728Z,17.19
2022-09-16T10:13:52.719Z,17.18
2022-09-16T10:16:24.840Z,17.19
2022-09-16T10:19:19.901Z,17.40
2022-09-16T10:21:50.947Z,17.42
2022-09-16T10:24:35.557Z,17.36
2022-09-16T10:27:22.962Z,17.46
2022-09-16T10:30:04.349Z,17.42
2022-09-16T10:32:32.021Z,17.33
2022-09-16T10:34:58.930Z,17.46
2022-09-16T10:37:54.110Z,17.52
2022-09-16T10:40:23.355Z,17.41
2022-09-16T10:42:53.400Z,17.27
2022-09-16T10:45:29.547Z,17.26
2022-09-16T10:48:02.188Z,17.12
2022-09-16T10:50:31.977Z,17.12
2022-09-16T10:52:59.023Z,17.16
2022-09-16T10:55:38.502Z,17.21
2022-09-16T10:58:24.069Z,17.30
2022-09-16T11:01:18.240Z,17.54
2022-09-16T11:04:05.309Z,17.66
2022-09-16T11:06:46.433Z,17.94
2022-09-16T11:09:56.333Z,18.16
2022-09-16T11:12:54.877Z,18.20
2022-09-16T11:15:59.310Z,18.30
2022-09-16T11:18:44.250Z,18.25
2022-09-16T11:21:49.414Z,18.28
2022-09-16T11:24:47.338Z,18.21
2022-09-16T11:27:21.317Z,18.10
2022-09-16T11:30:00.877Z,18.21
2022-09-16T11:32:56.075Z,18.32
2022-09-16T11:36:10.001Z,18.37
2022-09-16T11:38:49.310Z,18.39
2022-09-16T11:41:21.494Z,18.22
2022-09-16T11:44:20.490Z,18.10
2022-09-16T11:47:08.712Z,18.00
2022-09-16T11:50:03.969Z,18.03
2022-09-16T11:53:08.247Z,18.13
2022-09-16T11:55:55.242Z,18.32
2022-09-16T11:58:48.952Z,18.55
2022-09-16T12:01:27.901Z,18.45
2022-09-16T12:04:01.210Z,18.46
2022-09-16T12:07:01.139Z,18.56
2022-09-16T12:09:37.877Z,18.53
2022-09-16T12:12:16.361Z,18.38
2022-09-16T12:15:07.122Z,18.53
2022-09-16T12:17:39.354Z,18.44
2022-09-16T12:20:26.329Z,18.48
2022-09-16T12:23:03.539Z,18.44
2022-09-16T12:26:05.658Z,18.33
2022-09-16T12:28:39.084Z,18.30
2022-09-16T12:31:31.040Z,18.41
2022-09-16T12:34:22.710Z,18.67
2022-09-16T12:37:12.529Z,18.49
2022-09-16T12:39:39.450Z,18.00
2022-09-16T12:42:56.129Z,17.28
2022-09-16T12:45:41.610Z,16.34
2022-09-16T12:48:26.960Z,15.52
2022-09-16T12:51:17.726Z,15.13
2022-09-16T12:53:53.637Z,14.66
2022-09-16T12:56:44.403Z,14.70
2022-09-16T12:59:47.637Z,14.69
2022-09-16T13:02:20.586Z,14.76
2022-09-16T13:04:54.721Z,14.92
2022-09-16T13:07:40.526Z,15.34
2022-09-16T13:10:20.858Z,15.56
2022-09-16T13:13:07.982Z,15.79
2022-09-16T13:15:38.083Z,15.90
2022-09-16T13:18:13.854Z,15.75
2022-09-16T13:21:05.496Z,15.70
2022-09-16T13:23:40.105Z,15.68
2022-09-16T13:26:09.063Z,15.74
2022-09-16T13:28:38.331Z,15.72
2022-09-16T13:31:11.144Z,15.67
2022-09-16T13:33:48.026Z,15.67
2022-09-16T13:36:19.516Z,15.55
2022-09-16T13:38:52.082Z,15.42
2022-09-16T13:41:39.975Z,15.54
2022-09-16T13:44:38.365Z,15.62
2022-09-16T13:47:11.034Z,15.76
2022-09-16T13:50:02.160Z,15.93
2022-09-16T13:52:31.748Z,15.91
2022-09-16T13:55:10.864Z,16.14
2022-09-16T13:57:41.174Z,16.04
2022-09-16T14:00:23.642Z,16.31
2022-09-16T14:02:50.590Z,16.46
2022-09-16T14:05:17.475Z,16.42
2022-09-16T14:08:11.999Z,16.28
2022-09-16T14:11:00.756Z,16.24
2022-09-16T14:13:40.993Z,16.13
2022-09-16T14:16:24.006Z,16.26
2022-09-16T14:19:23.025Z,16.48
2022-09-16T14:22:16.882Z,16.78
2022-09-16T14:24:45.785Z,17.01
2022-09-16T14:27:29.130Z,17.12
2022-09-16T14:29:57.303Z,17.24
2022-09-16T14:32:26.790Z,17.27
2022-09-16T14:34:56.574Z,17.11
2022-09-16T14:37:26.977Z,16.93
2022-09-16T14:39:56.827Z,16.93
2022-09-16T14:42:23.972Z,16.71
2022-09-16T14:44:55.417Z,16.46
2022-09-16T14:47:50.677Z,16.39
2022-09-16T14:50:23.373Z,16.19
2022-09-16T14:53:01.532Z,16.36
2022-09-16T14:55:31.245Z,16.39
2022-09-16T14:57:59.808Z,16.46
2022-09-16T15:00:47.460Z,16.40
2022-09-16T15:03:22.553Z,16.38
2022-09-16T15:05:50.228Z,16.31
2022-09-16T15:08:23.685Z,16.24
2022-09-16T15:10:55.500Z,16.25
2022-09-16T15:13:37.683Z,16.30
2022-09-16T15:16:07.200Z,16.35
2022-09-16T15:18:34.951Z,16.35
2022-09-16T15:21:07.658Z,16.33
2022-09-16T15:23:37.227Z,16.27
2022-09-16T15:26:09.725Z,16.22
2022-09-16T15:28:36.552Z,16.11
2022-09-16T15:31:03.841Z,15.99
2022-09-16T15:33:40.866Z,15.74
2022-09-16T15:36:41.106Z,15.68
2022-09-16T15:39:26.701Z,15.66
2022-09-16T15:42:25.972Z,15.54
2022-09-16T15:44:54.290Z,15.42
2022-09-16T15:47:29.159Z,15.45
2022-09-16T15:50:02.884Z,15.40
2022-09-16T15:52:33.921Z,15.24
2022-09-16T15:55:04.891Z,15.25
2022-09-16T15:57:38.422Z,15.20
2022-09-16T16:00:16.107Z,15.14
2022-09-16T16:02:51.702Z,15.07
2022-09-16T16:05:23.460Z,15.06
2022-09-16T16:07:57.373Z,15.00
2022-09-16T16:10:30.909Z,14.98
2022-09-16T16:13:00.030Z,14.89
2022-09-16T16:15:31.463Z,14.88
2022-09-16T16:18:01.715Z,14.91
2022-09-16T16:20:29.037Z,14.88
2022-09-16T16:22:56.163Z,14.86
2022-09-16T16:25:23.192Z,14.89
2022-09-16T16:27:50.124Z,14.78
2022-09-16T16:30:17.080Z,14.82
2022-09-16T16:32:44.607Z,14.79
2022-09-16T16:35:11.993Z,14.84
2022-09-16T16:37:47.498Z,14.83
2022-09-16T16:40:15.838Z,14.74
2022-09-16T16:42:44.218Z,14.68
2022-09-16T16:45:13.194Z,14.66
2022-09-16T16:47:40.218Z,14.64
2022-09-16T16:50:25.655Z,14.68
2022-09-16T16:52:53.186Z,14.70
2022-09-16T16:55:38.723Z,14.64
2022-09-16T16:58:05.870Z,14.61
2022-09-16T17:00:41.442Z,14.62
2022-09-16T17:03:11.073Z,14.53
2022-09-16T17:05:37.912Z,14.51
2022-09-16T17:08:05.006Z,14.45
2022-09-16T17:10:32.073Z,14.39
2022-09-16T17:13:17.641Z,14.35
2022-09-16T17:15:44.843Z,14.38
2022-09-16T17:18:11.836Z,14.33
2022-09-16T17:21:06.136Z,14.30
2022-09-16T17:23:34.167Z,14.28
2022-09-16T17:26:02.129Z,14.21
2022-09-16T17:28:29.660Z,14.18
2022-09-16T17:30:57.071Z,14.10
2022-09-16T17:33:24.201Z,14.07
2022-09-16T17:36:01.943Z,14.03
2022-09-16T17:38:29.254Z,14.01
2022-09-16T17:41:09.411Z,13.97
2022-09-16T17:43:38.117Z,13.89
2022-09-16T17:46:07.686Z,13.87
2022-09-16T17:48:36.368Z,13.84
2022-09-16T17:51:09.474Z,13.74
2022-09-16T17:53:37.669Z,13.69
2022-09-16T17:56:10.526Z,13.66
2022-09-16T17:58:39.054Z,13.60
2022-09-16T18:01:26.057Z,13.58
2022-09-16T18:03:55.680Z,13.53
2022-09-16T18:06:23.829Z,13.53
2022-09-16T18:08:51.841Z,13.46
2022-09-16T18:11:38.645Z,13.47
2022-09-16T18:14:08.080Z,13.45
2022-09-16T18:16:35.097Z,13.40
2022-09-16T18:19:03.881Z,13.39
2022-09-16T18:21:31.497Z,13.39
2022-09-16T18:24:00.303Z,13.41
2022-09-16T18:26:27.914Z,13.34
2022-09-16T18:29:12.384Z,13.29
2022-09-16T18:31:42.555Z,13.31
2022-09-16T18:34:10.080Z,13.33
2022-09-16T18:36:39.014Z,13.30
2022-09-16T18:39:07.173Z,13.28
2022-09-16T18:41:37.265Z,13.25
2022-09-16T18:44:19.515Z,13.20
2022-09-16T18:46:47.185Z,13.18
2022-09-16T18:49:16.184Z,13.16
2022-09-16T18:51:50.476Z,13.12
2022-09-16T18:54:29.142Z,13.16
2022-09-16T18:56:59.043Z,13.16
2022-09-16T18:59:28.901Z,13.08
2022-09-16T19:02:00.351Z,13.07
2022-09-16T19:04:31.180Z,13.03
2022-09-16T19:07:05.825Z,13.09
2022-09-16T19:09:34.445Z,13.05
2022-09-16T19:12:02.195Z,13.00
2022-09-16T19:14:29.312Z,13.01
2022-09-16T19:16:56.367Z,12.98
2022-09-16T19:19:24.498Z,12.96
2022-09-16T19:21:51.558Z,12.82
2022-09-16T19:24:21.334Z,12.92
2022-09-16T19:26:50.476Z,12.92
2022-09-16T19:29:18.184Z,12.91
2022-09-16T19:31:47.647Z,12.87
2022-09-16T19:34:15.245Z,12.87
2022-09-16T19:36:42.910Z,12.85
2022-09-16T19:39:11.934Z,12.77
2022-09-16T19:41:40.550Z,12.81
2022-09-16T19:44:12.827Z,12.85
2022-09-16T19:46:42.636Z,12.84
2022-09-16T19:49:15.740Z,12.85
2022-09-16T19:51:43.140Z,12.85
2022-09-16T19:54:10.254Z,12.86
2022-09-16T19:56:37.705Z,12.75
2022-09-16T19:59:04.704Z,12.76
2022-09-16T20:01:34.660Z,12.82
2022-09-16T20:04:04.059Z,12.76
2022-09-16T20:06:40.863Z,12.75
2022-09-16T20:09:11.509Z,12.74
2022-09-16T20:11:42.756Z,12.68
2022-09-16T20:14:18.941Z,12.70
2022-09-16T20:16:47.217Z,12.66
2022-09-16T20:19:16.602Z,12.62
2022-09-16T20:21:43.906Z,12.62
2022-09-16T20:24:19.756Z,12.59
2022-09-16T20:26:51.009Z,12.47
2022-09-16T20:29:19.108Z,12.53
2022-09-16T20:31:48.481Z,12.54
2022-09-16T20:34:16.206Z,12.50
2022-09-16T20:36:44.399Z,12.48
2022-09-16T20:39:12.498Z,12.48
2022-09-16T20:41:40.265Z,12.46
2022-09-16T20:44:10.040Z,12.40
2022-09-16T20:46:38.756Z,12.43
2022-09-16T20:49:10.457Z,12.17
2022-09-16T20:51:37.726Z,12.40
2022-09-16T20:54:10.712Z,12.38
2022-09-16T20:56:40.590Z,12.38
2022-09-16T20:59:09.692Z,12.30
2022-09-16T21:01:38.298Z,12.19
2022-09-16T21:04:13.830Z,12.14
2022-09-16T21:06:41.310Z,12.13
2022-09-16T21:09:11.339Z,12.16
2022-09-16T21:11:42.617Z,12.08
2022-09-16T21:14:10.656Z,12.06
2022-09-16T21:16:39.017Z,11.99
2022-09-16T21:19:10.672Z,12.03
2022-09-16T21:21:40.777Z,12.05
2022-09-16T21:24:08.565Z,11.96
2022-09-16T21:26:37.698Z,11.95
2022-09-16T21:29:10.806Z,11.95
2022-09-16T21:31:39.418Z,11.96
2022-09-16T21:34:09.996Z,11.92
2022-09-16T21:36:39.106Z,11.88
2022-09-16T21:39:07.898Z,11.88
2022-09-16T21:41:35.130Z,11.87
2022-09-16T21:44:03.759Z,11.87
2022-09-16T21:46:33.598Z,11.86
2022-09-16T21:49:02.991Z,11.82
2022-09-16T21:51:37.235Z,11.79
2022-09-16T21:54:07.679Z,11.80
2022-09-16T21:56:38.530Z,11.81
2022-09-16T21:59:06.444Z,11.76
2022-09-16T22:01:33.676Z,11.79
2022-09-16T22:04:03.816Z,11.78
2022-09-16T22:06:31.461Z,11.66
2022-09-16T22:09:01.364Z,11.74
2022-09-16T22:11:30.973Z,11.72
2022-09-16T22:14:00.459Z,11.79
2022-09-16T22:16:29.773Z,11.75
2022-09-16T22:18:58.405Z,11.73
2022-09-16T22:21:27.401Z,11.74
2022-09-16T22:23:54.433Z,11.75
2022-09-16T22:26:23.072Z,11.77
2022-09-16T22:28:50.794Z,11.80
2022-09-16T22:31:35.789Z,11.85
2022-09-16T22:34:03.424Z,11.84
2022-09-16T22:36:32.649Z,11.82
2022-09-16T22:39:04.082Z,11.84
2022-09-16T22:41:31.583Z,11.81
2022-09-16T22:43:58.652Z,11.62
2022-09-16T22:46:27.978Z,11.89
2022-09-16T22:48:56.740Z,11.84
2022-09-16T22:51:24.509Z,11.76
2022-09-16T22:53:52.777Z,11.84
2022-09-16T22:56:25.017Z,11.83
2022-09-16T22:58:53.927Z,11.82
2022-09-16T23:01:23.793Z,11.76
2022-09-16T23:03:56.122Z,11.79
2022-09-16T23:06:24.673Z,11.79
2022-09-16T23:08:52.485Z,11.75
2022-09-16T23:11:23.916Z,11.75
2022-09-16T23:13:52.610Z,11.68
2022-09-16T23:16:24.325Z,11.73
2022-09-16T23:18:51.589Z,11.72
2022-09-16T23:21:20.548Z,11.73
2022-09-16T23:23:50.328Z,11.73
2022-09-16T23:26:20.153Z,11.72
2022-09-16T23:28:52.102Z,11.64
2022-09-16T23:31:21.772Z,11.67
2022-09-16T23:33:49.421Z,11.66
2022-09-16T23:36:17.740Z,11.68
2022-09-16T23:38:45.838Z,11.75
2022-09-16T23:41:19.678Z,11.75
2022-09-16T23:43:48.458Z,11.60
2022-09-16T23:46:18.040Z,11.73
2022-09-16T23:48:45.287Z,11.73
2022-09-16T23:51:13.973Z,11.74
2022-09-16T23:53:42.259Z,11.80
2022-09-16T23:56:12.938Z,11.80
2022-09-16T23:58:41.961Z,11.85
